createdAt,value
2022-11-16T00:01:57.275Z,10.98
2022-11-16T00:04:25.337Z,10.94
2022-11-16T00:06:53.274Z,10.96
2022-11-16T00:09:24.102Z,10.92
2022-11-16T00:11:53.882Z,10.92
2022-11-16T00:14:24.518Z,10.91
2022-11-16T00:16:52.783Z,10.91
2022-11-16T00:19:20.873Z,10.90
2022-11-16T00:21:48.781Z,10.89
2022-11-16T00:24:17.725Z,10.88
2022-11-16T00:26:45.935Z,10.88
2022-11-16T00:29:16.099Z,10.87
2022-11-16T00:31:46.000Z,10.85
2022-11-16T00:34:14.164Z,10.83
2022-11-16T00:36:42.221Z,10.84
2022-11-16T00:39:12.856Z,10.83
2022-11-16T00:41:41.084Z,10.81
2022-11-16T00:44:09.162Z,10.82
2022-11-16T00:46:37.041Z,10.79
2022-11-16T00:49:07.248Z,10.78
2022-11-16T00:51:36.088Z,10.88
2022-11-16T00:54:05.333Z,10.75
2022-11-16T00:56:33.154Z,10.72
2022-11-16T00:59:01.176Z,10.69
2022-11-16T01:01:29.303Z,10.71
2022-11-16T01:03:57.264Z,10.67
2022-11-16T01:06:26.445Z,10.71
2022-11-16T01:08:54.424Z,10.67
2022-11-16T01:11:51.288Z,10.66
2022-11-16T01:14:19.103Z,10.65
2022-11-16T01:16:50.227Z,10.66
2022-11-16T01:19:18.150Z,10.72
2022-11-16T01:21:47.472Z,10.71
2022-11-16T01:24:15.612Z,10.67
2022-11-16T01:26:43.475Z,10.71
2022-11-16T01:29:11.409Z,10.72
2022-11-16T01:31:39.172Z,10.69
2022-11-16T01:34:07.020Z,10.71
2022-11-16T01:36:36.730Z,10.71
2022-11-16T01:39:06.616Z,10.70
2022-11-16T01:41:34.552Z,10.66
2022-11-16T01:44:04.723Z,10.67
2022-11-16T01:46:32.922Z,10.62
2022-11-16T01:49:04.798Z,10.63
2022-11-16T01:51:34.575Z,10.62
2022-11-16T01:54:04.604Z,10.59
2022-11-16T01:56:37.535Z,10.60
2022-11-16T01:59:06.847Z,10.57
2022-11-16T02:01:34.815Z,10.57
2022-11-16T02:04:02.708Z,10.59
2022-11-16T02:06:35.084Z,10.59
2022-11-16T02:09:35.300Z,10.58
2022-11-16T02:12:15.868Z,10.57
2022-11-16T02:15:02.539Z,10.57
2022-11-16T02:17:39.997Z,10.58
2022-11-16T02:20:36.065Z,10.57
2022-11-16T02:23:25.822Z,10.55
2022-11-16T02:26:05.964Z,10.52
2022-11-16T02:28:45.246Z,10.52
2022-11-16T02:31:17.764Z,10.46
2022-11-16T02:33:52.158Z,10.45
2022-11-16T02:36:23.509Z,10.42
2022-11-16T02:38:58.092Z,10.41
2022-11-16T02:41:28.327Z,10.40
2022-11-16T02:44:02.078Z,10.42
2022-11-16T02:46:37.260Z,10.42
2022-11-16T02:49:08.929Z,10.43
2022-11-16T02:51:40.053Z,10.45
2022-11-16T02:54:13.052Z,10.49
2022-11-16T02:56:45.116Z,10.57
2022-11-16T02:59:17.440Z,10.54
2022-11-16T03:01:51.819Z,10.55
2022-11-16T03:04:25.998Z,10.51
2022-11-16T03:06:56.314Z,10.50
2022-11-16T03:09:30.023Z,10.47
2022-11-16T03:12:01.259Z,10.45
2022-11-16T03:14:34.770Z,10.49
2022-11-16T03:17:06.913Z,10.46
2022-11-16T03:19:38.870Z,10.48
2022-11-16T03:22:11.757Z,10.49
2022-11-16T03:24:40.272Z,10.49
2022-11-16T03:27:18.200Z,10.61
2022-11-16T03:29:54.994Z,10.53
2022-11-16T03:32:29.492Z,10.54
2022-11-16T03:35:01.521Z,10.66
2022-11-16T03:37:30.789Z,10.58
2022-11-16T03:40:01.158Z,10.56
2022-11-16T03:42:29.734Z,10.56
2022-11-16T03:44:57.977Z,10.57
2022-11-16T03:47:27.353Z,10.55
2022-11-16T03:49:55.159Z,10.57
2022-11-16T03:52:23.251Z,10.56
2022-11-16T03:54:51.091Z,10.66
2022-11-16T03:57:19.291Z,10.59
2022-11-16T03:59:47.399Z,10.57
2022-11-16T04:02:15.247Z,10.63
2022-11-16T04:05:01.686Z,10.65
2022-11-16T04:07:47.252Z,10.61
2022-11-16T04:10:32.907Z,10.62
2022-11-16T04:13:19.801Z,10.67
2022-11-16T04:16:04.945Z,10.66
2022-11-16T04:18:50.355Z,10.64
2022-11-16T04:21:41.639Z,10.64
2022-11-16T04:24:13.697Z,10.62
2022-11-16T04:27:02.462Z,10.65
2022-11-16T04:29:31.011Z,10.60
2022-11-16T04:32:16.469Z,10.65
2022-11-16T04:35:01.895Z,10.60
2022-11-16T04:37:48.325Z,10.58
2022-11-16T04:40:17.268Z,10.56
2022-11-16T04:42:45.130Z,10.56
2022-11-16T04:45:30.272Z,10.56
2022-11-16T04:47:58.070Z,10.57
2022-11-16T04:50:25.829Z,10.56
2022-11-16T04:52:55.010Z,10.56
2022-11-16T04:55:22.906Z,10.54
2022-11-16T04:57:50.664Z,10.54
2022-11-16T05:00:19.066Z,10.53
2022-11-16T05:02:47.251Z,10.54
2022-11-16T05:05:15.454Z,10.57
2022-11-16T05:07:43.391Z,10.58
2022-11-16T05:10:13.170Z,10.58
2022-11-16T05:12:41.536Z,10.59
2022-11-16T05:15:10.438Z,10.60
2022-11-16T05:17:38.363Z,10.62
2022-11-16T05:20:24.667Z,10.61
2022-11-16T05:22:55.930Z,10.59
2022-11-16T05:25:25.462Z,10.59
2022-11-16T05:27:53.502Z,10.58
2022-11-16T05:30:21.394Z,10.58
2022-11-16T05:32:49.210Z,10.58
2022-11-16T05:35:17.102Z,10.61
2022-11-16T05:37:44.991Z,10.58
2022-11-16T05:40:13.442Z,10.56
2022-11-16T05:42:42.732Z,10.59
2022-11-16T05:45:11.704Z,10.58
2022-11-16T05:47:39.716Z,10.55
2022-11-16T05:50:08.931Z,10.54
2022-11-16T05:52:36.767Z,10.51
2022-11-16T05:55:05.071Z,10.53
2022-11-16T05:57:32.871Z,10.54
2022-11-16T06:00:02.171Z,10.50
2022-11-16T06:02:33.752Z,10.52
2022-11-16T06:05:02.129Z,10.51
2022-11-16T06:07:30.113Z,10.50
2022-11-16T06:09:57.967Z,10.45
2022-11-16T06:12:25.816Z,10.48
2022-11-16T06:14:53.610Z,10.45
2022-11-16T06:17:22.774Z,10.46
2022-11-16T06:19:50.665Z,10.41
2022-11-16T06:22:18.576Z,10.41
2022-11-16T06:24:46.805Z,10.39
2022-11-16T06:27:14.661Z,10.37
2022-11-16T06:29:42.543Z,10.34
2022-11-16T06:32:10.367Z,10.33
2022-11-16T06:34:39.601Z,10.34
2022-11-16T06:37:07.445Z,10.33
2022-11-16T06:39:35.254Z,10.34
2022-11-16T06:42:03.137Z,10.32
2022-11-16T06:44:30.951Z,10.32
2022-11-16T06:46:59.240Z,10.32
2022-11-16T06:49:27.036Z,10.30
2022-11-16T06:51:56.212Z,10.33
2022-11-16T06:54:24.179Z,10.35
2022-11-16T06:56:52.412Z,10.34
2022-11-16T06:59:20.238Z,10.34
2022-11-16T07:01:48.196Z,10.35
2022-11-16T07:04:16.198Z,10.36
2022-11-16T07:06:44.276Z,10.37
2022-11-16T07:09:16.014Z,10.38
2022-11-16T07:11:43.767Z,10.38
2022-11-16T07:14:12.550Z,10.39
2022-11-16T07:16:40.392Z,10.41
2022-11-16T07:19:08.307Z,10.42
2022-11-16T07:21:36.084Z,10.43
2022-11-16T07:24:04.264Z,10.44
2022-11-16T07:26:35.074Z,10.45
2022-11-16T07:29:03.324Z,10.46
2022-11-16T07:31:31.987Z,10.47
2022-11-16T07:33:59.818Z,10.48
2022-11-16T07:36:27.927Z,10.50
2022-11-16T07:38:55.828Z,10.53
2022-11-16T07:41:23.963Z,10.56
2022-11-16T07:43:53.549Z,10.61
2022-11-16T07:46:47.524Z,10.64
2022-11-16T07:49:14.627Z,10.68
2022-11-16T07:51:42.637Z,10.70
2022-11-16T07:54:12.851Z,10.74
2022-11-16T07:56:41.082Z,10.77
2022-11-16T07:59:12.929Z,10.82
2022-11-16T08:01:40.786Z,10.86
2022-11-16T08:04:08.675Z,10.92
2022-11-16T08:06:36.516Z,10.97
2022-11-16T08:09:04.511Z,11.02
2022-11-16T08:11:32.410Z,11.07
2022-11-16T08:14:00.338Z,11.11
2022-11-16T08:16:29.560Z,11.15
2022-11-16T08:18:57.728Z,11.19
2022-11-16T08:21:25.716Z,11.21
2022-11-16T08:23:58.187Z,11.24
2022-11-16T08:26:27.123Z,11.29
2022-11-16T08:28:56.601Z,11.32
2022-11-16T08:31:27.596Z,11.30
2022-11-16T08:33:57.174Z,11.31
2022-11-16T08:36:25.000Z,11.39
2022-11-16T08:38:53.949Z,11.40
2022-11-16T08:41:22.651Z,11.43
2022-11-16T08:43:53.371Z,11.45
2022-11-16T08:46:21.938Z,11.52
2022-11-16T08:48:50.038Z,11.59
2022-11-16T08:51:20.521Z,11.65
2022-11-16T08:53:49.441Z,11.71
2022-11-16T08:56:19.457Z,11.76
2022-11-16T08:58:50.262Z,11.80
2022-11-16T09:01:22.921Z,11.82
2022-11-16T09:03:51.323Z,11.85
2022-11-16T09:06:20.861Z,11.85
2022-11-16T09:08:49.946Z,11.83
2022-11-16T09:11:20.994Z,11.84
2022-11-16T09:13:50.402Z,11.90
2022-11-16T09:16:20.938Z,11.90
2022-11-16T09:18:49.929Z,11.90
2022-11-16T09:21:20.584Z,11.98
2022-11-16T09:23:48.735Z,11.93
2022-11-16T09:26:18.990Z,11.94
2022-11-16T09:28:47.202Z,12.00
2022-11-16T09:31:18.964Z,12.11
2022-11-16T09:33:50.980Z,12.30
2022-11-16T09:36:20.801Z,12.33
2022-11-16T09:42:03.454Z,12.53
2022-11-16T09:44:53.212Z,12.63
2022-11-16T09:47:23.247Z,12.71
2022-11-16T09:49:59.760Z,12.70
2022-11-16T09:52:35.659Z,12.71
2022-11-16T09:55:16.626Z,12.73
2022-11-16T09:57:46.301Z,12.87
2022-11-16T10:00:19.544Z,12.96
2022-11-16T10:03:00.855Z,13.07
2022-11-16T10:05:33.855Z,13.17
2022-11-16T10:08:13.447Z,13.07
2022-11-16T10:10:55.580Z,13.10
2022-11-16T10:13:38.866Z,13.10
2022-11-16T10:16:14.820Z,13.02
2022-11-16T10:18:56.980Z,12.93
2022-11-16T10:21:42.768Z,12.84
2022-11-16T10:24:25.707Z,12.83
2022-11-16T10:27:03.854Z,12.78
2022-11-16T10:29:46.500Z,12.71
2022-11-16T10:32:26.072Z,12.68
2022-11-16T10:34:56.318Z,12.63
2022-11-16T10:37:29.963Z,12.59
2022-11-16T10:39:59.533Z,12.54
2022-11-16T10:42:33.439Z,12.52
2022-11-16T10:45:07.527Z,12.52
2022-11-16T10:47:42.617Z,12.59
2022-11-16T10:50:31.796Z,12.70
2022-11-16T10:52:59.858Z,12.71
2022-11-16T10:55:30.100Z,12.74
2022-11-16T10:58:00.284Z,12.73
2022-11-16T11:00:36.188Z,12.73
2022-11-16T11:03:04.099Z,12.72
2022-11-16T11:05:32.464Z,12.81
2022-11-16T11:08:06.105Z,12.84
2022-11-16T11:10:37.325Z,12.93
2022-11-16T11:13:26.337Z,12.93
2022-11-16T11:16:14.915Z,12.92
2022-11-16T11:18:42.952Z,12.93
2022-11-16T11:21:18.642Z,12.92
2022-11-16T11:23:48.938Z,12.96
2022-11-16T11:26:36.464Z,12.97
2022-11-16T11:29:24.039Z,12.96
2022-11-16T11:31:54.226Z,12.92
2022-11-16T11:34:24.756Z,12.84
2022-11-16T11:36:56.284Z,12.80
2022-11-16T11:39:31.507Z,12.81
2022-11-16T11:42:06.789Z,12.82
2022-11-16T11:44:43.736Z,12.83
2022-11-16T11:47:57.225Z,12.79
2022-11-16T11:50:32.758Z,12.74
2022-11-16T11:53:04.446Z,12.68
2022-11-16T11:55:32.968Z,12.68
2022-11-16T11:58:04.812Z,12.64
2022-11-16T12:00:42.400Z,12.63
2022-11-16T12:03:44.831Z,12.58
2022-11-16T12:06:20.905Z,12.55
2022-11-16T12:09:14.300Z,12.50
2022-11-16T12:11:54.922Z,12.49
2022-11-16T12:14:39.815Z,12.50
2022-11-16T12:17:13.299Z,12.49
2022-11-16T12:20:02.553Z,12.49
2022-11-16T12:23:03.976Z,12.48
2022-11-16T12:25:38.955Z,12.48
2022-11-16T12:28:22.950Z,12.42
2022-11-16T12:31:02.535Z,12.41
2022-11-16T12:33:42.941Z,12.40
2022-11-16T12:36:22.666Z,12.33
2022-11-16T12:39:02.108Z,12.33
2022-11-16T12:42:10.247Z,12.38
2022-11-16T12:45:03.400Z,12.53
2022-11-16T12:47:43.603Z,12.72
2022-11-16T12:50:33.401Z,13.03
2022-11-16T12:53:24.345Z,13.19
2022-11-16T12:56:00.463Z,13.23
2022-11-16T12:58:41.072Z,13.34
2022-11-16T13:01:18.596Z,13.55
2022-11-16T13:03:52.327Z,13.69
2022-11-16T13:06:22.652Z,13.92
2022-11-16T13:09:01.706Z,14.03
2022-11-16T13:11:32.990Z,14.22
2022-11-16T13:14:04.049Z,14.35
2022-11-16T13:16:32.387Z,14.57
2022-11-16T13:19:04.458Z,14.65
2022-11-16T13:21:46.632Z,14.65
2022-11-16T13:24:25.575Z,14.64
2022-11-16T13:27:04.639Z,14.74
2022-11-16T13:29:38.832Z,14.88
2022-11-16T13:32:12.151Z,14.95
2022-11-16T13:37:48.878Z,15.18
2022-11-16T13:40:29.211Z,15.23
2022-11-16T13:43:15.786Z,15.06
2022-11-16T13:45:52.255Z,15.12
2022-11-16T13:48:22.434Z,15.23
2022-11-16T13:50:55.517Z,15.21
2022-11-16T13:54:25.114Z,15.28
2022-11-16T13:56:18.293Z,15.15
2022-11-16T13:58:48.163Z,14.97
2022-11-16T14:01:17.694Z,14.74
2022-11-16T14:03:46.583Z,14.48
2022-11-16T14:06:57.900Z,14.20
2022-11-16T14:09:46.648Z,13.97
2022-11-16T14:12:52.243Z,13.82
2022-11-16T14:15:22.021Z,13.70
2022-11-16T14:17:51.873Z,13.60
2022-11-16T14:20:35.979Z,13.44
2022-11-16T14:23:15.378Z,13.34
2022-11-16T14:25:48.884Z,13.25
2022-11-16T14:28:32.931Z,13.22
2022-11-16T14:31:14.749Z,13.09
2022-11-16T14:33:43.418Z,13.01
2022-11-16T14:36:12.347Z,13.04
2022-11-16T14:38:44.433Z,13.10
2022-11-16T14:41:21.177Z,13.10
2022-11-16T14:43:52.945Z,13.15
2022-11-16T14:46:24.152Z,13.13
2022-11-16T14:48:52.907Z,13.07
2022-11-16T14:51:24.590Z,13.03
2022-11-16T14:53:57.643Z,13.00
2022-11-16T14:56:25.480Z,13.01
2022-11-16T14:58:55.338Z,12.96
2022-11-16T15:01:25.912Z,12.89
2022-11-16T15:03:58.465Z,12.82
2022-11-16T15:06:27.479Z,12.79
2022-11-16T15:09:00.588Z,12.73
2022-11-16T15:11:44.768Z,12.66
2022-11-16T15:14:12.794Z,12.58
2022-11-16T15:16:50.263Z,12.47
2022-11-16T15:19:18.302Z,12.38
2022-11-16T15:21:53.066Z,12.30
2022-11-16T15:24:31.522Z,12.18
2022-11-16T15:27:11.805Z,12.08
2022-11-16T15:29:40.155Z,11.99
2022-11-16T15:32:13.998Z,11.96
2022-11-16T15:34:41.947Z,11.92
2022-11-16T15:37:15.209Z,11.86
2022-11-16T15:39:45.083Z,11.82
2022-11-16T15:42:16.815Z,11.79
2022-11-16T15:44:45.352Z,11.78
2022-11-16T15:47:15.062Z,11.75
2022-11-16T15:49:44.139Z,11.72
2022-11-16T15:52:12.035Z,11.67
2022-11-16T15:54:53.744Z,11.66
2022-11-16T15:57:24.801Z,11.64
2022-11-16T15:59:55.656Z,11.62
2022-11-16T16:02:27.828Z,11.55
2022-11-16T16:04:55.709Z,11.51
2022-11-16T16:07:39.903Z,11.51
2022-11-16T16:10:23.738Z,11.49
2022-11-16T16:12:56.176Z,11.44
2022-11-16T16:15:25.829Z,11.44
2022-11-16T16:17:55.198Z,11.43
2022-11-16T16:20:25.415Z,11.39
2022-11-16T16:22:54.250Z,11.36
2022-11-16T16:25:31.230Z,11.33
2022-11-16T16:28:00.798Z,11.33
2022-11-16T16:30:30.507Z,11.33
2022-11-16T16:32:58.743Z,11.34
2022-11-16T16:35:27.327Z,11.33
2022-11-16T16:37:59.352Z,11.33
2022-11-16T16:40:27.476Z,11.30
2022-11-16T16:42:56.692Z,11.24
2022-11-16T16:45:33.863Z,11.22
2022-11-16T16:48:01.813Z,11.27
2022-11-16T16:50:29.960Z,11.27
2022-11-16T16:52:57.788Z,11.27
2022-11-16T16:55:26.002Z,11.23
2022-11-16T16:57:54.100Z,11.21
2022-11-16T17:00:22.130Z,11.18
2022-11-16T17:02:51.816Z,11.14
2022-11-16T17:05:19.647Z,11.14
2022-11-16T17:07:47.560Z,11.13
2022-11-16T17:10:15.380Z,11.09
2022-11-16T17:12:43.204Z,11.02
2022-11-16T17:15:16.460Z,10.98
2022-11-16T17:17:49.203Z,10.91
2022-11-16T17:20:18.619Z,10.83
2022-11-16T17:22:46.448Z,10.77
2022-11-16T17:25:14.965Z,10.74
2022-11-16T17:27:42.800Z,10.70
2022-11-16T17:30:11.864Z,10.68
2022-11-16T17:32:39.937Z,10.62
2022-11-16T17:35:08.226Z,10.58
2022-11-16T17:37:37.610Z,10.54
2022-11-16T17:40:06.835Z,10.54
2022-11-16T17:42:35.681Z,10.48
2022-11-16T17:45:06.036Z,10.46
2022-11-16T17:47:34.532Z,10.42
2022-11-16T17:50:03.535Z,10.35
2022-11-16T17:52:31.652Z,10.29
2022-11-16T17:55:00.931Z,10.26
2022-11-16T17:57:28.779Z,10.22
2022-11-16T17:59:58.648Z,10.24
2022-11-16T18:02:26.489Z,10.19
2022-11-16T18:04:54.370Z,10.19
2022-11-16T18:07:22.242Z,10.19
2022-11-16T18:09:50.803Z,10.19
2022-11-16T18:12:19.988Z,10.13
2022-11-16T18:15:13.485Z,10.13
2022-11-16T18:17:36.421Z,10.12
2022-11-16T18:20:05.081Z,10.11
2022-11-16T18:22:32.902Z,10.12
2022-11-16T18:25:00.998Z,10.13
2022-11-16T18:27:30.198Z,10.13
2022-11-16T18:29:58.067Z,10.15
2022-11-16T18:32:25.853Z,10.20
2022-11-16T18:34:54.184Z,10.22
2022-11-16T18:37:22.012Z,10.22
2022-11-16T18:39:49.857Z,10.21
2022-11-16T18:42:17.664Z,10.24
2022-11-16T18:44:48.074Z,10.24
2022-11-16T18:47:15.881Z,10.23
2022-11-16T18:49:43.705Z,10.19
2022-11-16T18:52:11.720Z,10.19
2022-11-16T18:54:39.602Z,10.20
2022-11-16T18:57:07.763Z,10.26
2022-11-16T18:59:35.600Z,10.19
2022-11-16T19:02:04.868Z,10.13
2022-11-16T19:04:32.732Z,10.10
2022-11-16T19:07:00.673Z,10.06
2022-11-16T19:09:28.625Z,10.01
2022-11-16T19:11:56.451Z,9.96
2022-11-16T19:14:25.403Z,9.95
2022-11-16T19:16:57.065Z,9.93
2022-11-16T19:19:27.832Z,9.91
2022-11-16T19:21:57.279Z,9.88
2022-11-16T19:24:25.544Z,9.84
2022-11-16T19:26:53.762Z,9.82
2022-11-16T19:29:23.912Z,9.78
2022-11-16T19:31:51.995Z,9.75
2022-11-16T19:34:20.594Z,9.73
2022-11-16T19:36:52.118Z,9.69
2022-11-16T19:39:20.003Z,9.68
2022-11-16T19:41:48.003Z,9.62
2022-11-16T19:44:16.075Z,9.63
2022-11-16T19:46:45.142Z,9.62
2022-11-16T19:49:19.647Z,9.58
2022-11-16T19:51:49.776Z,9.57
2022-11-16T19:54:20.585Z,9.55
2022-11-16T19:56:54.654Z,9.55
2022-11-16T19:59:36.917Z,9.55
2022-11-16T20:02:07.845Z,9.53
2022-11-16T20:04:36.019Z,9.52
2022-11-16T20:07:05.625Z,9.52
2022-11-16T20:09:36.656Z,9.49
2022-11-16T20:12:07.032Z,9.45
2022-11-16T20:14:35.303Z,9.39
2022-11-16T20:17:08.854Z,9.34
2022-11-16T20:19:47.983Z,9.33
2022-11-16T20:22:18.657Z,9.32
2022-11-16T20:24:49.128Z,9.30
2022-11-16T20:27:17.958Z,9.31
2022-11-16T20:29:47.416Z,9.40
2022-11-16T20:32:16.781Z,9.38
2022-11-16T20:34:44.847Z,9.27
2022-11-16T20:37:12.679Z,9.26
2022-11-16T20:39:42.376Z,9.25
2022-11-16T20:42:10.510Z,9.23
2022-11-16T20:44:39.080Z,9.22
2022-11-16T20:47:07.341Z,9.24
2022-11-16T20:49:35.762Z,9.25
2022-11-16T20:52:04.084Z,9.25
2022-11-16T20:54:32.192Z,9.25
2022-11-16T20:57:04.136Z,9.25
2022-11-16T20:59:31.996Z,9.20
2022-11-16T21:01:59.882Z,9.18
2022-11-16T21:04:27.700Z,9.14
2022-11-16T21:06:55.685Z,9.13
2022-11-16T21:09:23.894Z,9.11
2022-11-16T21:12:08.962Z,9.07
2022-11-16T21:14:38.251Z,9.04
2022-11-16T21:17:06.353Z,9.04
2022-11-16T21:19:34.243Z,9.02
2022-11-16T21:22:02.096Z,9.00
2022-11-16T21:24:31.692Z,8.98
2022-11-16T21:26:59.538Z,8.99
2022-11-16T21:29:28.199Z,8.98
2022-11-16T21:31:57.426Z,8.96
2022-11-16T21:34:27.809Z,9.02
2022-11-16T21:36:55.695Z,8.97
2022-11-16T21:39:23.511Z,8.97
2022-11-16T21:41:51.399Z,8.95
2022-11-16T21:44:19.229Z,8.97
2022-11-16T21:46:47.299Z,8.97
2022-11-16T21:49:16.528Z,8.98
2022-11-16T21:51:44.313Z,9.01
2022-11-16T21:54:12.102Z,8.99
2022-11-16T21:56:39.900Z,9.00
2022-11-16T21:59:07.680Z,9.04
2022-11-16T22:01:59.369Z,9.01
2022-11-16T22:04:45.987Z,8.96
2022-11-16T22:07:32.528Z,8.96
2022-11-16T22:10:00.502Z,8.95
2022-11-16T22:12:28.543Z,8.95
2022-11-16T22:14:56.986Z,8.94
2022-11-16T22:17:24.799Z,8.95
2022-11-16T22:19:54.342Z,8.96
2022-11-16T22:22:22.480Z,8.97
2022-11-16T22:24:50.352Z,8.98
2022-11-16T22:27:20.227Z,8.98
2022-11-16T22:29:48.204Z,8.97
2022-11-16T22:32:16.052Z,8.94
2022-11-16T22:34:43.970Z,8.93
2022-11-16T22:37:13.158Z,8.93
2022-11-16T22:39:41.175Z,8.91
2022-11-16T22:42:08.951Z,8.91
2022-11-16T22:44:36.783Z,8.91
2022-11-16T22:47:04.984Z,8.89
2022-11-16T22:49:33.021Z,8.90
2022-11-16T22:52:00.954Z,8.89
2022-11-16T22:54:31.076Z,8.94
2022-11-16T22:56:59.053Z,8.92
2022-11-16T22:59:26.856Z,9.01
2022-11-16T23:01:54.827Z,8.98
2022-11-16T23:04:22.691Z,8.99
2022-11-16T23:06:50.639Z,9.01
2022-11-16T23:09:18.434Z,9.04
2022-11-16T23:12:04.803Z,9.08
2022-11-16T23:14:49.975Z,9.10
2022-11-16T23:17:17.804Z,9.13
2022-11-16T23:20:02.956Z,9.17
2022-11-16T23:22:48.173Z,9.20
2022-11-16T23:25:33.037Z,9.22
2022-11-16T23:28:06.458Z,9.25
2022-11-16T23:30:34.570Z,9.28
2022-11-16T23:33:02.440Z,9.27
2022-11-16T23:35:30.374Z,9.28
2022-11-16T23:37:59.294Z,9.33
2022-11-16T23:40:28.980Z,9.30
2022-11-16T23:43:14.950Z,9.32
2022-11-16T23:45:45.129Z,9.31
2022-11-16T23:48:15.670Z,9.32
2022-11-16T23:50:44.455Z,9.33
2022-11-16T23:53:13.483Z,9.33
2022-11-16T23:55:41.389Z,9.34
2022-11-16T23:58:14.251Z,9.36
